Tabular Data

Home
Details
NOAA Reports
Overview
Tabular Data
Links

Today's  Data

5/24/07
Time         Wind Dir  Wind Gust    Temp In       Temp  Dew Point Barom Rate  DailyRain
                            mph         F         F         F      in/hr         in
12:00am            47          6       72.5       60.3       42.1      0.001       0.00
1:00am             46          6       72.5       59.0       41.4      0.000       0.00
2:00am             31          6       72.3       57.9       40.9     -0.026       0.00
3:00am             34          3       72.1       57.2       41.2     -0.010       0.00

 


Yesterday's Data

5/23/07
Time         Wind Dir  Wind Gust    Temp In       Temp  Dew Point Barom Rate  DailyRain
                            mph         F         F         F      in/hr         in
12:00am            42          0       70.7       58.1       30.6     -0.015       0.00
1:00am             27          4       70.5       56.7       35.0      0.007       0.00
2:00am             39          4       70.3       55.9       38.1     -0.018       0.00
3:00am             60          4       70.2       54.5       41.8      0.006       0.00
4:00am             57          4       70.0       53.4       43.1      0.002       0.00
5:00am             59          3       69.6       52.9       43.4      0.001       0.00
6:00am             82          0       69.3       53.1       42.8      0.016       0.00
7:00am             32          4       69.1       52.9       43.7      0.006       0.00
8:00am             35          4       69.1       55.0       46.2      0.015       0.00
9:00am             69          5       69.1       57.4       46.5      0.005       0.00
10:00am            74          4       69.1       60.8       45.5      0.002       0.00
11:00am            76          5       69.3       65.1       42.1      0.004       0.00
12:00pm           199          6       69.4       73.4       41.8     -0.015       0.00
1:00pm            270         10       69.6       76.1       37.8     -0.005       0.00
2:00pm            210          9       70.2       75.4       33.9     -0.018       0.00
3:00pm            270         10       70.7       77.5       34.6     -0.007       0.00
4:00pm            174          9       71.2       75.4       38.1     -0.019       0.00
5:00pm            227         14       71.8       73.0       40.6     -0.007       0.00
6:00pm            162         14       72.5       70.5       39.3     -0.003       0.00
7:00pm             83         13       72.9       68.7       39.2     -0.001       0.00
8:00pm             53         12       72.1       66.4       39.3     -0.000       0.00
9:00pm             44          8       72.0       64.0       40.5      0.027       0.00
10:00pm            47          7       72.5       62.2       41.2      0.010       0.00
11:00pm            45          9       72.7       61.3       42.0      0.004       0.00

All rights reserved. Unauthorized duplication or distribution is prohibited
Never base important decisions on this or any weather information obtained from the Internet

Updated Automatically by Ambient Software's Virtual Weather Station  V12.07